Latest Weather Observations for Clare

IDS60801

Issued at 7:35 pm CST Tuesday 30 September 2014 (issued every 30 minutes, with the page automatically refreshed every 10 minutes)

About weather observations | Map of weather stations | Latest weather observations for SA | Other Formats
Station Details ID: 021131 Name: CLARE HIGH SCHOOL Lat: -33.82 Lon: 138.59 Height: 395.0 m
Data from the previous 72 hours. | See also: Recent months at Clare
Date/Time
CST
Temp
°C
App
Temp
°C
Dew
Point
Rel
Hum
%
Delta-T
°C
Wind Press
QNH
hPa
Press
MSL
hPa
Rain
since 9 am
mm
Dir
 
Spd
km/h
Gust
km/h
Spd
kts
Gust
kts
30/07:30pm 11.0 6.6 6.4 73 2.2 SW 19 33 10 18 1020.8 - 0.0
30/07:00pm 11.7 7.6 6.2 69 2.6 SW 17 24 9 13 1020.1 - 0.0
30/06:30pm 12.2 7.7 7.1 71 2.5 SW 20 33 11 18 1019.3 - 0.0
30/06:00pm 12.8 8.7 8.5 75 2.2 SW 20 33 11 18 1018.7 1018.8 0.0
30/05:30pm 13.9 9.2 9.1 73 2.5 SW 24 39 13 21 1018.4 - 0.0
30/05:00pm 14.6 10.5 10.0 74 2.4 SW 22 39 12 21 1018.1 - 0.0
30/04:30pm 16.0 12.0 10.3 69 3.1 SW 22 41 12 22 1017.3 - 0.0
30/04:00pm 17.5 12.0 9.2 58 4.4 SW 28 48 15 26 1016.7 - 0.0
30/03:30pm 18.2 11.8 8.5 53 5.1 WSW 32 57 17 31 1016.4 - 0.0
30/03:00pm 19.1 13.2 9.0 52 5.4 WSW 30 48 16 26 1016.2 1016.3 0.0
30/02:30pm 19.2 13.5 8.5 50 5.7 WSW 28 52 15 28 1016.1 - 0.0
30/02:02pm 19.2 12.7 8.2 49 5.8 W 32 52 17 28 1015.9 - 0.0
30/02:00pm 19.4 13.0 8.4 49 5.8 WSW 32 46 17 25 1016.0 - 0.0
30/01:30pm 19.2 12.4 9.1 52 5.4 WSW 35 57 19 31 1016.2 - 0.0
30/01:00pm 19.1 12.4 7.5 47 6.0 WSW 32 52 17 28 1016.4 - 0.0
30/12:30pm 19.1 12.3 6.9 45 6.3 WSW 32 54 17 29 1016.4 - 0.0
30/12:00pm 18.8 12.1 7.3 47 5.9 W 32 50 17 27 1016.4 1016.5 0.0
30/11:30am 18.9 12.4 8.0 49 5.7 W 32 52 17 28 1016.3 - 0.0
30/11:08am 19.6 13.6 7.0 44 6.5 WSW 28 46 15 25 1016.1 - 0.0
30/11:00am 19.8 14.4 6.5 42 6.8 W 24 44 13 24 1016.1 - 0.0
30/10:46am 19.5 13.2 5.9 41 6.9 W 28 46 15 25 1016.2 - 0.0
30/10:30am 19.3 13.5 6.4 43 6.6 W 26 43 14 23 1016.0 - 0.0
30/10:00am 19.1 13.4 8.4 50 5.7 W 28 46 15 25 1016.2 - 0.0
30/09:43am 18.5 12.9 8.7 53 5.2 W 28 46 15 25 1016.0 - 0.0
30/09:30am 18.4 13.3 7.8 50 5.5 W 24 41 13 22 1016.1 - 0.0
30/09:04am 17.9 11.9 7.0 49 5.6 W 28 48 15 26 1015.8 - 0.0
30/09:00am 17.9 12.9 7.9 52 5.2 W 24 33 13 18 1015.9 1015.9 0.0
30/08:30am 17.1 12.2 8.3 56 4.6 WNW 24 33 13 18 1015.6 - 0.0
30/08:00am 16.7 11.5 7.4 54 4.7 WNW 24 35 13 19 1015.4 - 0.0
30/07:30am 15.5 11.1 7.5 59 4.1 WNW 20 30 11 16 1015.5 - 0.0
30/07:00am 12.4 9.2 8.3 76 2.1 WNW 15 19 8 10 1015.0 - 0.0
30/06:53am 10.3 8.1 9.5 95 0.4 WNW 11 17 6 9 1014.9 - 0.0
30/06:30am 4.6 3.3 4.3 98 0.1 CALM 0 0 0 0 1014.8 - 0.0
30/06:00am 4.2 2.8 3.8 97 0.2 SSE 0 0 0 0 1014.5 1014.6 0.0
30/05:30am 4.3 3.0 3.9 97 0.2 CALM 0 0 0 0 1014.1 - 0.0
30/05:00am 4.6 3.3 4.0 96 0.3 CALM 0 0 0 0 1013.8 - 0.0
30/04:30am 5.3 4.2 4.9 97 0.2 CALM 0 0 0 0 1013.6 - 0.0
30/04:00am 5.7 4.7 5.4 98 0.1 CALM 0 0 0 0 1013.3 - 0.0
30/03:30am 5.1 3.9 4.7 97 0.2 CALM 0 0 0 0 1013.3 - 0.0
30/03:00am 5.7 4.6 5.3 97 0.2 CALM 0 0 0 0 1013.9 1013.9 0.0
30/02:30am 5.6 4.5 4.9 95 0.3 CALM 0 0 0 0 1014.1 - 0.0
30/02:00am 6.3 5.3 5.6 95 0.3 CALM 0 0 0 0 1014.3 - 0.0
30/01:30am 6.5 5.5 5.5 93 0.5 SW 0 0 0 0 1014.8 - 0.0
30/01:00am 7.4 6.5 5.9 90 0.7 CALM 0 0 0 0 1015.1 - 0.0
30/12:30am 8.6 7.8 6.7 88 0.9 CALM 0 0 0 0 1015.5 - 0.0
30/12:00am 8.2 7.4 6.7 90 0.7 SW 0 0 0 0 1015.6 1015.6 0.0
 
Date/Time
CST
Temp
°C
App
Temp
°C
Dew
Point
Rel
Hum
%
Delta-T
°C
Wind Press
QNH
hPa
Press
MSL
hPa
Rain
since 9 am
mm
Dir
 
Spd
km/h
Gust
km/h
Spd
kts
Gust
kts
29/11:30pm 8.6 7.8 6.4 86 1.0 CALM 0 0 0 0 1015.6 - 0.0
29/11:00pm 9.7 9.0 7.0 83 1.3 CALM 0 0 0 0 1015.6 - 0.0
29/10:30pm 9.6 8.9 6.9 83 1.3 CALM 0 7 0 4 1015.8 - 0.0
29/10:00pm 10.1 9.5 7.2 82 1.4 CALM 0 4 0 2 1016.0 - 0.0
29/09:30pm 10.9 10.3 7.2 78 1.8 CALM 0 0 0 0 1016.0 - 0.0
29/09:00pm 12.4 11.4 7.3 71 2.5 SW 2 7 1 4 1016.3 1016.4 0.0
29/08:30pm 14.0 12.3 7.5 65 3.3 W 6 11 3 6 1016.1 - 0.0
29/08:00pm 14.8 12.6 7.8 63 3.6 W 9 19 5 10 1015.7 - 0.0
29/07:30pm 12.6 12.1 7.9 73 2.4 CALM 0 0 0 0 1015.1 - 0.0
29/07:00pm 14.0 13.5 8.0 67 3.0 CALM 0 0 0 0 1014.6 - 0.0
29/06:30pm 16.1 15.7 8.1 59 4.1 CALM 0 0 0 0 1014.3 - 0.0
29/06:00pm 18.0 16.1 7.4 50 5.5 W 7 11 4 6 1014.2 1014.3 0.0
29/05:30pm 19.3 16.5 7.1 45 6.3 WNW 11 19 6 10 1014.1 - 0.0
29/05:00pm 19.7 15.7 6.8 43 6.6 W 17 22 9 12 1013.9 - 0.0
29/04:30pm 19.7 15.3 6.4 42 6.8 W 19 30 10 16 1013.8 - 0.0
29/04:00pm 19.8 15.6 7.5 45 6.4 WNW 19 28 10 15 1013.8 - 0.0
29/03:30pm 19.9 14.8 4.0 35 7.8 WNW 20 33 11 18 1014.0 - 0.0
29/03:00pm 20.2 15.8 7.2 43 6.8 WNW 20 28 11 15 1013.9 1013.9 0.0
29/02:30pm 20.4 16.5 8.7 47 6.3 NW 19 35 10 19 1014.1 - 0.0
29/02:00pm 20.1 16.2 8.8 48 6.0 WNW 19 32 10 17 1014.5 - 0.0
29/01:30pm 19.9 17.0 8.3 47 6.1 WNW 13 24 7 13 1014.7 - 0.0
29/01:00pm 18.4 14.7 8.1 51 5.4 WNW 17 26 9 14 1015.1 - 0.0
29/12:30pm 18.5 15.7 8.7 53 5.2 NW 13 24 7 13 1015.5 - 0.0
29/12:00pm 17.9 15.8 9.8 59 4.4 W 11 20 6 11 1015.9 1015.9 0.0
29/11:30am 17.5 14.8 8.9 57 4.5 NW 13 22 7 12 1016.4 - 0.0
29/11:00am 17.0 14.9 9.9 63 3.8 WNW 11 22 6 12 1016.7 - 0.0
29/10:30am 16.5 14.7 9.4 63 3.8 N 9 20 5 11 1016.8 - 0.0
29/10:00am 15.9 14.3 10.2 69 3.1 N 9 17 5 9 1017.2 - 0.0
29/09:30am 14.3 12.3 10.3 77 2.1 NNW 11 17 6 9 1017.4 - 0.0
29/09:00am 13.4 11.9 10.6 83 1.5 NNW 9 13 5 7 1017.6 1017.7 0.0
29/08:30am 12.8 10.8 10.2 84 1.4 N 11 15 6 8 1017.5 - 0.0
29/08:00am 11.2 9.5 9.8 91 0.7 N 9 13 5 7 1017.1 - 0.0
29/07:30am 9.2 7.9 9.1 99 0.1 NW 6 9 3 5 1016.8 - 0.0
29/07:00am 8.4 6.9 8.4 100 0.0 NW 6 9 3 5 1016.6 - 0.0
29/06:30am 7.0 6.2 6.7 98 0.1 CALM 0 0 0 0 1016.1 - 0.0
29/06:00am 7.5 6.8 7.1 97 0.2 CALM 0 0 0 0 1015.9 1015.9 0.0
29/05:30am 8.4 7.8 7.6 95 0.4 CALM 0 0 0 0 1015.7 - 0.0
29/05:00am 9.7 9.5 8.9 95 0.4 CALM 0 0 0 0 1015.4 - 0.0
29/04:30am 9.8 9.6 9.0 95 0.4 CALM 0 0 0 0 1015.3 - 0.0
29/04:00am 9.5 9.2 8.7 95 0.4 CALM 0 0 0 0 1015.3 - 0.0
29/03:30am 9.4 9.1 8.6 95 0.4 CALM 0 0 0 0 1015.0 - 0.0
29/03:00am 9.0 8.6 8.1 94 0.4 CALM 0 0 0 0 1015.0 1015.1 0.0
29/02:30am 9.2 8.0 8.0 92 0.6 W 4 13 2 7 1015.1 - 0.0
29/02:00am 9.8 8.1 8.2 90 0.8 W 7 11 4 6 1015.3 - 0.0
29/01:30am 10.2 7.7 8.3 88 0.9 W 11 17 6 9 1015.3 - 0.0
29/01:00am 10.5 8.1 8.6 88 1.0 W 11 22 6 12 1015.4 - 0.0
29/12:30am 10.9 7.7 8.5 85 1.2 W 15 24 8 13 1015.7 - 0.0
29/12:00am 11.2 8.0 8.6 84 1.3 W 15 20 8 11 1015.9 1015.9 0.0
 
Date/Time
CST
Temp
°C
App
Temp
°C
Dew
Point
Rel
Hum
%
Delta-T
°C
Wind Press
QNH
hPa
Press
MSL
hPa
Rain
since 9 am
mm
Dir
 
Spd
km/h
Gust
km/h
Spd
kts
Gust
kts
28/11:30pm 11.1 8.7 8.8 86 1.2 W 11 20 6 11 1016.0 - 0.0
28/11:00pm 11.2 9.0 9.5 89 0.9 WSW 11 19 6 10 1016.1 - 0.0
28/10:30pm 11.4 9.7 9.8 90 0.8 WSW 9 15 5 8 1016.2 - 0.0
28/10:00pm 11.9 9.4 9.6 86 1.2 WSW 13 22 7 12 1016.1 - 0.0
28/09:30pm 12.1 9.6 9.8 86 1.2 SW 13 22 7 12 1016.1 - 0.0
28/09:00pm 12.6 10.6 10.1 85 1.3 SW 11 19 6 10 1015.9 1015.9 0.0
28/08:30pm 12.8 10.8 10.2 84 1.4 SW 11 20 6 11 1015.4 - 0.0
28/08:00pm 13.1 11.1 10.1 82 1.6 WSW 11 17 6 9 1014.9 - 0.0
28/07:30pm 13.8 11.1 10.4 80 1.8 SSW 15 24 8 13 1014.0 - 0.0
28/07:00pm 14.3 11.6 10.3 77 2.1 SSW 15 32 8 17 1013.0 - 0.0
28/06:30pm 15.1 11.7 11.1 77 2.2 SSW 20 33 11 18 1011.7 - 0.0
28/06:00pm 16.8 13.5 11.5 71 2.9 SSW 20 35 11 19 1011.0 1011.0 0.0
28/05:30pm 18.7 14.9 11.0 61 4.3 SSW 22 37 12 20 1010.5 - 0.0
28/05:00pm 21.7 17.4 10.8 50 6.1 SSW 24 43 13 23 1009.8 - 0.0
28/04:30pm 25.5 20.4 4.0 25 10.9 W 20 33 11 18 1008.9 - 0.0
28/04:00pm 27.3 20.0 2.4 20 12.4 WNW 30 46 16 25 1008.4 - 0.0
28/03:30pm 27.6 20.2 1.9 19 12.7 WNW 30 50 16 27 1008.7 - 0.0
28/03:00pm 28.1 20.1 1.6 18 13.1 NW 33 54 18 29 1008.9 1008.9 0.0
28/02:30pm 28.0 20.0 1.5 18 13.1 NW 33 65 18 35 1009.2 - 0.0
28/02:22pm 28.4 20.8 2.6 19 13.0 NW 32 50 17 27 1009.3 - 0.0
28/02:12pm 27.7 19.1 2.7 20 12.6 WNW 37 50 20 27 1009.3 - 0.0
28/02:00pm 28.0 20.1 2.2 19 12.9 NW 33 56 18 30 1009.7 - 0.0
28/01:30pm 27.1 18.8 2.2 20 12.3 NW 35 54 19 29 1010.1 - 0.0
28/01:00pm 26.1 18.6 3.4 23 11.4 NW 32 50 17 27 1010.4 - 0.0
28/12:30pm 26.6 17.9 1.8 20 12.2 NW 37 69 20 37 1010.3 - 0.0
28/12:00pm 27.3 17.8 1.7 19 12.6 NW 41 61 22 33 1010.3 1010.3 0.0
28/11:57am 27.3 18.7 2.4 20 12.4 NW 37 61 20 33 1010.3 - 0.0
28/11:30am 27.5 19.0 3.2 21 12.3 NNW 37 56 20 30 1010.3 - 0.0
28/11:06am 27.2 20.2 4.3 23 11.8 NNW 30 48 16 26 1010.6 - 0.0
28/11:00am 26.7 19.3 3.9 23 11.6 NNW 32 48 17 26 1010.7 - 0.0
28/10:30am 25.9 17.7 4.9 26 10.8 NNW 37 57 20 31 1011.0 - 0.0
28/10:00am 25.0 17.5 4.2 26 10.5 NNW 33 59 18 32 1011.8 - 0.0
28/09:41am 24.2 15.5 4.0 27 10.1 NNW 39 80 21 43 1012.1 - 0.0
28/09:30am 24.2 16.5 5.5 30 9.7 NNW 35 61 19 33 1012.1 - 0.0
28/09:00am 23.6 16.3 4.5 29 9.7 N 32 54 17 29 1011.1 1011.1 0.0
28/08:39am 22.6 16.1 4.6 31 9.0 N 28 46 15 25 1011.3 - 0.0
28/08:30am 21.6 16.1 5.9 36 8.0 N 24 37 13 20 1011.3 - 0.0
28/08:00am 20.9 14.4 4.5 34 8.1 N 28 44 15 24 1011.5 - 0.0
28/07:30am 19.4 13.7 5.1 39 7.1 N 24 37 13 20 1011.5 - 0.0
28/07:00am 17.9 13.2 5.2 43 6.3 N 19 30 10 16 1011.7 - 0.0
28/06:30am 17.3 12.5 4.6 43 6.2 N 19 32 10 17 1011.7 - 0.0
28/06:00am 16.3 11.9 5.0 47 5.5 N 17 24 9 13 1011.8 1011.8 0.0
28/05:30am 16.4 12.1 5.4 48 5.4 N 17 24 9 13 1011.7 - 0.0
28/05:00am 15.8 12.0 5.7 51 5.0 N 15 26 8 14 1011.8 - 0.0
28/04:30am 15.5 12.5 6.0 53 4.7 N 11 26 6 14 1012.2 - 0.0
28/04:00am 15.1 12.4 7.2 59 4.0 NNE 11 19 6 10 1012.7 - 0.0
28/03:30am 13.5 11.1 6.8 64 3.3 NNW 9 19 5 10 1013.6 - 0.0
28/03:00am 13.9 11.2 7.4 65 3.3 N 11 19 6 10 1014.1 1014.2 0.0
28/02:30am 14.2 12.0 7.7 65 3.3 N 9 17 5 9 1014.4 - 0.0
28/02:00am 14.8 11.8 7.8 63 3.6 NNE 13 20 7 11 1014.8 - 0.0
28/01:30am 14.9 11.9 7.7 62 3.7 N 13 19 7 10 1015.3 - 0.0
28/01:00am 15.2 12.2 7.5 60 3.9 NNE 13 19 7 10 1015.7 - 0.0
28/12:30am 15.8 12.6 7.0 56 4.4 N 13 20 7 11 1015.9 - 0.0
28/12:00am 15.5 12.5 6.2 54 4.6 N 11 20 6 11 1016.1 1016.1 0.0
 
Date/Time
CST
Temp
°C
App
Temp
°C
Dew
Point
Rel
Hum
%
Delta-T
°C
Wind Press
QNH
hPa
Press
MSL
hPa
Rain
since 9 am
mm
Dir
 
Spd
km/h
Gust
km/h
Spd
kts
Gust
kts
27/11:30pm 15.3 12.7 6.3 55 4.5 N 9 17 5 9 1016.2 - 0.0
27/11:00pm 14.2 12.6 6.3 59 3.9 NW 4 7 2 4 1016.5 - 0.0
27/10:30pm 15.4 13.7 6.1 54 4.6 NNW 4 9 2 5 1016.6 - 0.0
27/10:00pm 15.8 15.0 6.5 54 4.6 CALM 0 4 0 2 1016.7 - 0.0
27/09:30pm 15.9 14.8 6.9 55 4.5 N 2 9 1 5 1016.8 - 0.0
27/09:00pm 16.1 15.2 7.6 57 4.3 N 2 9 1 5 1016.9 1017.0 0.0
27/08:30pm 16.7 15.2 8.4 58 4.3 N 6 13 3 7 1017.0 - 0.0
27/08:00pm 17.2 15.7 8.4 56 4.6 NNW 6 9 3 5 1016.9 - 0.0

Other Formats:

Comma delimited format used in spreadsheet applications
http://www.bom.gov.au/fwo/IDS60801/IDS60801.95667.axf

JavaScript Object Notation format (JSON) in row-major order
http://www.bom.gov.au/fwo/IDS60801/IDS60801.95667.json